CPX794 Details

Departure: Aeropuerto Internacional Ezeiza/Ministro Pistarini (SAEZ)
Arrival: Miami International Airport (KMIA)
Route: UCA UA301 URSUS FLIPR6


Current Weather Information
SAEZ 181500Z 23008KT 9999 FEW034 26/17 Q1008 NOSIG
KMIA 181553Z 29005KT 10SM FEW017 23/20 A3007 RMK AO2 SLP181 T02330200